This is the latest recevied weather packets stored in our database for station/object KD7YDD. If no packets are shown the sender has not sent any weather packets the latest 10 day(s).
| Time | Temp. | Humidity | Pressure | Rain* | Wind** | Luminosity | Snow |
|---|---|---|---|---|---|---|---|
| 1777681877 | 21.11° C | 64% | 1012.6 hPa | 0 mm | - | 39 W/m² | - |
| 1777679476 | 22.22° C | 58% | 1012.5 hPa | 0 mm | - | 74 W/m² | - |
| 1777678276 | 21.67° C | 61% | 1012.6 hPa | 0 mm | - | 209 W/m² | - |
| 1777677697 | 22.22° C | 60% | 1012.7 hPa | 0 mm | - | 241 W/m² | - |
| 1777663876 | 21.11° C | 66% | 1014.5 hPa | 0 mm | - | 677 W/m² | - |
| 1777655477 | 12.78° C | 89% | 1015.6 hPa | 0 mm | - | 120 W/m² | - |
| 1777653078 | 11.11° C | 91% | 1015.8 hPa | 0 mm | - | 84 W/m² | - |
| 1777651878 | 11.11° C | 91% | 1015.9 hPa | 0 mm | - | 91 W/m² | - |
| 1777650078 | 10.56° C | 91% | 1015.7 hPa | 0 mm | - | 60 W/m² | - |
| 1777648902 | 10.56° C | 91% | 1015.6 hPa | 0 mm | - | 39 W/m² | - |
| 1777648278 | 10° C | 91% | 1015.6 hPa | 0 mm | - | 40 W/m² | - |
| 1777646477 | 10° C | 91% | 1015.1 hPa | 0 mm | - | 23 W/m² | - |
| 1777645877 | 10° C | 91% | 1015.1 hPa | 0 mm | - | 18 W/m² | - |
| 1777634478 | 10° C | 91% | 1014.2 hPa | 0 mm | - | 0 W/m² | - |
| 1777624877 | 8.89° C | 90% | 1014.8 hPa | 0 mm | - | 0 W/m² | - |
| 1777623096 | 8.89° C | 90% | 1014.8 hPa | 0 mm | - | 0 W/m² | - |
| 1777620121 | 9.44° C | 90% | 1014.7 hPa | 0 mm | - | 0 W/m² | - |
| 1777617677 | 10° C | 89% | 1014.5 hPa | 0 mm | - | 0 W/m² | - |
| 1777616497 | 10.56° C | 89% | 1014.3 hPa | 0 mm | - | 0 W/m² | - |
| 1777615298 | 10.56° C | 89% | 1014.4 hPa | 0 mm | - | 0 W/m² | - |
| 1777608676 | 12.78° C | 84% | 1013.7 hPa | 0 mm | - | 0 W/m² | - |
| 1777604477 | 15° C | 78% | 1013.3 hPa | 0 mm | - | 0 W/m² | - |
| 1777590076 | 21.67° C | 54% | 1013.2 hPa | 0 mm | - | 612 W/m² | - |
| 1777585876 | 23.33° C | 49% | 1013.8 hPa | 0 mm | - | 789 W/m² | - |
| 1777584676 | 23.33° C | 50% | 1013.8 hPa | 0 mm | - | 821 W/m² | - |
* Rain latest hour (hover to see other rain measurements)
** Current wind speed in m/s (hover to see current wind gust speed)